sensor_id;sensor_type;location;lat;lon;timestamp;temperature;humidity
212;DHT22;16228;48.800;9.002;2023-03-24T00:00:32;13.30;96.90
212;DHT22;16228;48.800;9.002;2023-03-24T00:03:00;13.30;96.90
212;DHT22;16228;48.800;9.002;2023-03-24T00:05:27;13.40;96.90
212;DHT22;16228;48.800;9.002;2023-03-24T00:07:55;13.50;96.90
212;DHT22;16228;48.800;9.002;2023-03-24T00:10:22;13.50;96.90
212;DHT22;16228;48.800;9.002;2023-03-24T00:12:49;13.60;96.90
212;DHT22;16228;48.800;9.002;2023-03-24T00:15:18;13.50;96.90
212;DHT22;16228;48.800;9.002;2023-03-24T00:17:46;13.60;96.90
212;DHT22;16228;48.800;9.002;2023-03-24T00:20:18;13.70;96.90
212;DHT22;16228;48.800;9.002;2023-03-24T00:22:46;13.70;96.90
212;DHT22;16228;48.800;9.002;2023-03-24T00:25:16;13.70;96.90
212;DHT22;16228;48.800;9.002;2023-03-24T00:27:44;13.80;96.90
212;DHT22;16228;48.800;9.002;2023-03-24T00:30:14;13.80;96.90
212;DHT22;16228;48.800;9.002;2023-03-24T00:32:42;13.80;96.90
212;DHT22;16228;48.800;9.002;2023-03-24T00:35:11;13.90;96.90
212;DHT22;16228;48.800;9.002;2023-03-24T00:37:40;14.00;96.90
212;DHT22;16228;48.800;9.002;2023-03-24T00:40:13;14.10;96.90
212;DHT22;16228;48.800;9.002;2023-03-24T00:42:41;14.10;96.90
212;DHT22;16228;48.800;9.002;2023-03-24T00:45:11;14.20;96.90
212;DHT22;16228;48.800;9.002;2023-03-24T00:47:39;14.20;96.90
212;DHT22;16228;48.800;9.002;2023-03-24T00:50:08;14.20;96.90
212;DHT22;16228;48.800;9.002;2023-03-24T00:52:37;14.20;96.90
212;DHT22;16228;48.800;9.002;2023-03-24T00:55:11;14.10;96.90
212;DHT22;16228;48.800;9.002;2023-03-24T00:57:40;14.10;96.90
212;DHT22;16228;48.800;9.002;2023-03-24T01:00:15;14.10;96.90
212;DHT22;16228;48.800;9.002;2023-03-24T01:02:43;14.10;96.90
212;DHT22;16228;48.800;9.002;2023-03-24T01:05:11;14.10;96.90
212;DHT22;16228;48.800;9.002;2023-03-24T01:07:42;14.10;96.90
212;DHT22;16228;48.800;9.002;2023-03-24T01:10:13;14.00;96.90
212;DHT22;16228;48.800;9.002;2023-03-24T01:12:40;14.00;96.90
212;DHT22;16228;48.800;9.002;2023-03-24T01:15:12;14.00;96.90
212;DHT22;16228;48.800;9.002;2023-03-24T01:17:40;14.00;96.90
212;DHT22;16228;48.800;9.002;2023-03-24T01:20:09;13.90;96.90
212;DHT22;16228;48.800;9.002;2023-03-24T01:22:38;14.00;96.90
212;DHT22;16228;48.800;9.002;2023-03-24T01:25:06;13.90;96.90
212;DHT22;16228;48.800;9.002;2023-03-24T01:27:36;13.90;96.90
212;DHT22;16228;48.800;9.002;2023-03-24T01:30:04;13.90;96.90
212;DHT22;16228;48.800;9.002;2023-03-24T01:32:31;13.90;96.90
212;DHT22;16228;48.800;9.002;2023-03-24T01:34:58;14.00;96.90
212;DHT22;16228;48.800;9.002;2023-03-24T01:37:25;14.00;96.90
212;DHT22;16228;48.800;9.002;2023-03-24T01:39:52;14.10;96.90
212;DHT22;16228;48.800;9.002;2023-03-24T01:42:23;14.10;96.90
212;DHT22;16228;48.800;9.002;2023-03-24T01:44:56;14.10;96.90
212;DHT22;16228;48.800;9.002;2023-03-24T01:47:23;14.10;96.90
212;DHT22;16228;48.800;9.002;2023-03-24T01:49:52;14.20;96.90
212;DHT22;16228;48.800;9.002;2023-03-24T01:52:23;14.10;96.90
212;DHT22;16228;48.800;9.002;2023-03-24T01:54:53;14.10;96.90
212;DHT22;16228;48.800;9.002;2023-03-24T01:57:25;14.10;96.90
212;DHT22;16228;48.800;9.002;2023-03-24T01:59:56;14.00;96.90
212;DHT22;16228;48.800;9.002;2023-03-24T02:02:25;14.00;96.90
212;DHT22;16228;48.800;9.002;2023-03-24T02:04:56;14.00;96.90
212;DHT22;16228;48.800;9.002;2023-03-24T02:07:30;14.10;96.90
212;DHT22;16228;48.800;9.002;2023-03-24T02:09:58;14.00;96.90
212;DHT22;16228;48.800;9.002;2023-03-24T02:12:26;13.90;96.90
212;DHT22;16228;48.800;9.002;2023-03-24T02:14:54;14.00;96.90
212;DHT22;16228;48.800;9.002;2023-03-24T02:17:37;14.00;96.90
212;DHT22;16228;48.800;9.002;2023-03-24T02:23:33;14.00;96.90
212;DHT22;16228;48.800;9.002;2023-03-24T02:29:42;13.90;96.90
212;DHT22;16228;48.800;9.002;2023-03-24T02:32:34;14.00;96.90
212;DHT22;16228;48.800;9.002;2023-03-24T02:38:29;14.00;96.90
212;DHT22;16228;48.800;9.002;2023-03-24T02:41:03;13.90;96.90
212;DHT22;16228;48.800;9.002;2023-03-24T02:43:36;13.80;96.90
212;DHT22;16228;48.800;9.002;2023-03-24T02:46:11;13.80;96.90
212;DHT22;16228;48.800;9.002;2023-03-24T02:48:49;13.80;96.90
212;DHT22;16228;48.800;9.002;2023-03-24T02:51:26;13.80;96.90
212;DHT22;16228;48.800;9.002;2023-03-24T02:53:59;13.80;96.90
212;DHT22;16228;48.800;9.002;2023-03-24T02:56:34;13.80;96.90
212;DHT22;16228;48.800;9.002;2023-03-24T02:59:04;13.80;96.90
212;DHT22;16228;48.800;9.002;2023-03-24T03:01:34;13.80;96.90
212;DHT22;16228;48.800;9.002;2023-03-24T03:04:08;13.80;96.90
212;DHT22;16228;48.800;9.002;2023-03-24T03:06:38;13.80;96.90
212;DHT22;16228;48.800;9.002;2023-03-24T03:09:07;13.80;96.90
212;DHT22;16228;48.800;9.002;2023-03-24T03:11:38;13.80;96.90
212;DHT22;16228;48.800;9.002;2023-03-24T03:14:09;13.80;96.90
212;DHT22;16228;48.800;9.002;2023-03-24T03:16:40;13.80;96.90
212;DHT22;16228;48.800;9.002;2023-03-24T03:19:13;13.80;96.90
212;DHT22;16228;48.800;9.002;2023-03-24T03:21:43;13.80;96.90
212;DHT22;16228;48.800;9.002;2023-03-24T03:24:14;13.90;96.90
212;DHT22;16228;48.800;9.002;2023-03-24T03:26:47;13.90;96.90
212;DHT22;16228;48.800;9.002;2023-03-24T03:29:19;14.00;96.90
212;DHT22;16228;48.800;9.002;2023-03-24T03:31:51;13.90;96.90
212;DHT22;16228;48.800;9.002;2023-03-24T03:34:30;13.90;96.90
212;DHT22;16228;48.800;9.002;2023-03-24T03:37:04;13.80;96.90
212;DHT22;16228;48.800;9.002;2023-03-24T03:39:33;13.80;96.90
212;DHT22;16228;48.800;9.002;2023-03-24T03:42:02;13.70;96.90
212;DHT22;16228;48.800;9.002;2023-03-24T03:44:31;13.70;96.90
212;DHT22;16228;48.800;9.002;2023-03-24T03:46:59;13.70;96.90
212;DHT22;16228;48.800;9.002;2023-03-24T03:49:26;13.70;96.90
212;DHT22;16228;48.800;9.002;2023-03-24T03:51:54;13.70;96.90
212;DHT22;16228;48.800;9.002;2023-03-24T03:54:23;13.80;96.90
212;DHT22;16228;48.800;9.002;2023-03-24T03:56:52;13.80;96.90
212;DHT22;16228;48.800;9.002;2023-03-24T03:59:26;13.80;96.90
212;DHT22;16228;48.800;9.002;2023-03-24T04:01:54;13.80;96.90
212;DHT22;16228;48.800;9.002;2023-03-24T04:07:26;13.80;96.90
212;DHT22;16228;48.800;9.002;2023-03-24T04:10:05;13.70;96.90
212;DHT22;16228;48.800;9.002;2023-03-24T04:12:56;13.80;96.90
212;DHT22;16228;48.800;9.002;2023-03-24T04:15:33;13.70;96.90
212;DHT22;16228;48.800;9.002;2023-03-24T04:18:14;13.70;96.90
212;DHT22;16228;48.800;9.002;2023-03-24T04:20:47;13.80;96.90
212;DHT22;16228;48.800;9.002;2023-03-24T04:23:25;13.80;96.90
212;DHT22;16228;48.800;9.002;2023-03-24T04:26:01;13.90;96.90
212;DHT22;16228;48.800;9.002;2023-03-24T04:28:37;14.00;96.90
212;DHT22;16228;48.800;9.002;2023-03-24T04:31:12;13.90;96.90
212;DHT22;16228;48.800;9.002;2023-03-24T04:33:48;13.90;96.90
212;DHT22;16228;48.800;9.002;2023-03-24T04:36:21;14.00;96.90
212;DHT22;16228;48.800;9.002;2023-03-24T04:38:52;14.00;96.90
212;DHT22;16228;48.800;9.002;2023-03-24T04:41:23;13.90;96.90
212;DHT22;16228;48.800;9.002;2023-03-24T04:43:53;14.00;96.90
212;DHT22;16228;48.800;9.002;2023-03-24T04:46:22;14.00;96.90
212;DHT22;16228;48.800;9.002;2023-03-24T04:48:50;14.00;96.90
212;DHT22;16228;48.800;9.002;2023-03-24T04:51:18;14.10;96.90
212;DHT22;16228;48.800;9.002;2023-03-24T04:53:46;14.10;96.90
212;DHT22;16228;48.800;9.002;2023-03-24T04:56:33;14.10;96.90
212;DHT22;16228;48.800;9.002;2023-03-24T04:59:03;14.10;96.90
212;DHT22;16228;48.800;9.002;2023-03-24T05:01:33;14.20;96.90
212;DHT22;16228;48.800;9.002;2023-03-24T05:04:03;14.10;96.90
212;DHT22;16228;48.800;9.002;2023-03-24T05:06:30;14.10;96.90
212;DHT22;16228;48.800;9.002;2023-03-24T05:08:57;14.00;96.90
212;DHT22;16228;48.800;9.002;2023-03-24T05:11:24;14.00;96.90
212;DHT22;16228;48.800;9.002;2023-03-24T05:13:52;14.00;96.90
212;DHT22;16228;48.800;9.002;2023-03-24T05:16:19;14.00;96.90
212;DHT22;16228;48.800;9.002;2023-03-24T05:18:48;14.00;96.90
212;DHT22;16228;48.800;9.002;2023-03-24T05:21:15;14.00;96.90
212;DHT22;16228;48.800;9.002;2023-03-24T05:23:42;13.90;96.90
212;DHT22;16228;48.800;9.002;2023-03-24T05:26:09;13.80;96.90
212;DHT22;16228;48.800;9.002;2023-03-24T05:28:35;13.70;96.90
212;DHT22;16228;48.800;9.002;2023-03-24T05:31:03;13.60;96.90
212;DHT22;16228;48.800;9.002;2023-03-24T05:33:30;13.60;96.90
212;DHT22;16228;48.800;9.002;2023-03-24T05:35:58;13.60;96.90
212;DHT22;16228;48.800;9.002;2023-03-24T05:38:25;13.50;96.90
212;DHT22;16228;48.800;9.002;2023-03-24T05:40:55;13.50;96.90
212;DHT22;16228;48.800;9.002;2023-03-24T05:43:23;13.40;96.90
212;DHT22;16228;48.800;9.002;2023-03-24T05:45:50;13.30;96.90
212;DHT22;16228;48.800;9.002;2023-03-24T05:48:17;13.20;96.90
212;DHT22;16228;48.800;9.002;2023-03-24T05:50:44;13.20;96.90
212;DHT22;16228;48.800;9.002;2023-03-24T05:53:13;13.10;96.90
212;DHT22;16228;48.800;9.002;2023-03-24T05:55:40;13.10;96.90
212;DHT22;16228;48.800;9.002;2023-03-24T05:58:07;13.10;96.90
212;DHT22;16228;48.800;9.002;2023-03-24T06:00:33;13.00;96.90
212;DHT22;16228;48.800;9.002;2023-03-24T06:03:01;13.00;96.90
212;DHT22;16228;48.800;9.002;2023-03-24T06:05:28;13.00;96.90
212;DHT22;16228;48.800;9.002;2023-03-24T06:07:55;12.90;96.90
212;DHT22;16228;48.800;9.002;2023-03-24T06:10:25;12.90;96.90
212;DHT22;16228;48.800;9.002;2023-03-24T06:12:53;12.90;96.90
212;DHT22;16228;48.800;9.002;2023-03-24T06:15:20;12.80;96.90
212;DHT22;16228;48.800;9.002;2023-03-24T06:17:48;12.90;96.90
212;DHT22;16228;48.800;9.002;2023-03-24T06:20:19;12.90;96.90
212;DHT22;16228;48.800;9.002;2023-03-24T06:22:46;12.90;96.90
212;DHT22;16228;48.800;9.002;2023-03-24T06:25:15;12.90;96.90
212;DHT22;16228;48.800;9.002;2023-03-24T06:27:44;12.90;96.90
212;DHT22;16228;48.800;9.002;2023-03-24T06:30:13;13.00;96.90
212;DHT22;16228;48.800;9.002;2023-03-24T06:32:41;13.00;96.90
212;DHT22;16228;48.800;9.002;2023-03-24T06:35:11;13.10;96.90
212;DHT22;16228;48.800;9.002;2023-03-24T06:37:39;13.20;96.90
212;DHT22;16228;48.800;9.002;2023-03-24T06:40:07;13.40;96.90
212;DHT22;16228;48.800;9.002;2023-03-24T06:42:38;13.60;96.90
212;DHT22;16228;48.800;9.002;2023-03-24T06:45:07;13.90;96.90
212;DHT22;16228;48.800;9.002;2023-03-24T06:47:34;14.10;96.90
212;DHT22;16228;48.800;9.002;2023-03-24T06:50:02;14.10;96.90
212;DHT22;16228;48.800;9.002;2023-03-24T06:52:29;14.10;96.90
212;DHT22;16228;48.800;9.002;2023-03-24T06:54:56;14.10;96.90
212;DHT22;16228;48.800;9.002;2023-03-24T06:57:23;14.10;96.90
212;DHT22;16228;48.800;9.002;2023-03-24T06:59:50;14.00;96.90
212;DHT22;16228;48.800;9.002;2023-03-24T07:02:19;13.90;96.90
212;DHT22;16228;48.800;9.002;2023-03-24T07:04:46;13.80;96.90
212;DHT22;16228;48.800;9.002;2023-03-24T07:07:13;13.80;96.90
212;DHT22;16228;48.800;9.002;2023-03-24T07:09:42;13.70;96.90
212;DHT22;16228;48.800;9.002;2023-03-24T07:12:09;13.60;96.90
212;DHT22;16228;48.800;9.002;2023-03-24T07:14:37;13.60;96.90
212;DHT22;16228;48.800;9.002;2023-03-24T07:17:04;13.50;96.90
212;DHT22;16228;48.800;9.002;2023-03-24T07:19:33;13.50;96.90
212;DHT22;16228;48.800;9.002;2023-03-24T07:22:00;13.50;96.90
212;DHT22;16228;48.800;9.002;2023-03-24T07:24:27;13.50;96.90
212;DHT22;16228;48.800;9.002;2023-03-24T07:26:54;13.40;96.90
212;DHT22;16228;48.800;9.002;2023-03-24T07:29:21;13.40;96.90
212;DHT22;16228;48.800;9.002;2023-03-24T07:31:49;13.40;96.90
212;DHT22;16228;48.800;9.002;2023-03-24T07:34:17;13.40;96.90
212;DHT22;16228;48.800;9.002;2023-03-24T07:36:46;13.40;96.90
212;DHT22;16228;48.800;9.002;2023-03-24T07:39:13;13.30;96.90
212;DHT22;16228;48.800;9.002;2023-03-24T07:41:40;13.30;96.90
212;DHT22;16228;48.800;9.002;2023-03-24T07:44:07;13.30;96.90
212;DHT22;16228;48.800;9.002;2023-03-24T07:46:34;13.20;96.90
212;DHT22;16228;48.800;9.002;2023-03-24T07:49:02;13.20;96.90
212;DHT22;16228;48.800;9.002;2023-03-24T07:51:29;13.20;96.90
212;DHT22;16228;48.800;9.002;2023-03-24T07:53:58;13.10;96.90
212;DHT22;16228;48.800;9.002;2023-03-24T07:56:25;13.10;96.90
212;DHT22;16228;48.800;9.002;2023-03-24T07:58:52;13.20;96.90
212;DHT22;16228;48.800;9.002;2023-03-24T08:01:19;13.20;96.90
212;DHT22;16228;48.800;9.002;2023-03-24T08:03:46;13.20;96.90
212;DHT22;16228;48.800;9.002;2023-03-24T08:06:14;13.10;96.90
212;DHT22;16228;48.800;9.002;2023-03-24T08:08:41;13.20;96.90
212;DHT22;16228;48.800;9.002;2023-03-24T08:11:09;13.10;96.90
212;DHT22;16228;48.800;9.002;2023-03-24T08:13:36;13.10;96.90
212;DHT22;16228;48.800;9.002;2023-03-24T08:16:03;13.10;96.90
212;DHT22;16228;48.800;9.002;2023-03-24T08:18:31;13.20;96.90
212;DHT22;16228;48.800;9.002;2023-03-24T08:21:00;13.30;96.90
212;DHT22;16228;48.800;9.002;2023-03-24T08:23:27;13.30;96.90
212;DHT22;16228;48.800;9.002;2023-03-24T08:25:54;13.40;96.90
212;DHT22;16228;48.800;9.002;2023-03-24T08:28:23;13.50;96.90
212;DHT22;16228;48.800;9.002;2023-03-24T08:30:50;13.40;96.90
212;DHT22;16228;48.800;9.002;2023-03-24T08:33:17;13.40;96.90
212;DHT22;16228;48.800;9.002;2023-03-24T08:35:44;13.40;96.90
212;DHT22;16228;48.800;9.002;2023-03-24T08:38:12;13.40;96.90
212;DHT22;16228;48.800;9.002;2023-03-24T08:40:40;13.40;96.90
212;DHT22;16228;48.800;9.002;2023-03-24T08:43:13;13.40;96.90
212;DHT22;16228;48.800;9.002;2023-03-24T08:45:42;13.50;96.90
212;DHT22;16228;48.800;9.002;2023-03-24T08:48:09;13.50;96.90
212;DHT22;16228;48.800;9.002;2023-03-24T08:50:38;13.60;96.90
212;DHT22;16228;48.800;9.002;2023-03-24T08:53:06;13.70;96.90
212;DHT22;16228;48.800;9.002;2023-03-24T08:55:33;13.70;96.90
212;DHT22;16228;48.800;9.002;2023-03-24T08:58:02;13.80;96.90
212;DHT22;16228;48.800;9.002;2023-03-24T09:00:29;14.00;96.90
212;DHT22;16228;48.800;9.002;2023-03-24T09:02:57;14.10;96.90
212;DHT22;16228;48.800;9.002;2023-03-24T09:05:25;14.30;96.90
212;DHT22;16228;48.800;9.002;2023-03-24T09:07:53;14.30;96.90
212;DHT22;16228;48.800;9.002;2023-03-24T09:10:20;14.30;96.90
212;DHT22;16228;48.800;9.002;2023-03-24T09:12:48;14.20;96.90
212;DHT22;16228;48.800;9.002;2023-03-24T09:15:15;14.20;96.90
212;DHT22;16228;48.800;9.002;2023-03-24T09:17:42;14.20;96.90
212;DHT22;16228;48.800;9.002;2023-03-24T09:20:13;14.20;96.90
212;DHT22;16228;48.800;9.002;2023-03-24T09:22:41;14.20;96.90
212;DHT22;16228;48.800;9.002;2023-03-24T09:25:10;14.40;96.90
212;DHT22;16228;48.800;9.002;2023-03-24T09:27:37;14.60;96.90
212;DHT22;16228;48.800;9.002;2023-03-24T09:30:05;14.60;96.90
212;DHT22;16228;48.800;9.002;2023-03-24T09:32:34;14.60;96.90
212;DHT22;16228;48.800;9.002;2023-03-24T09:35:01;14.40;96.90
212;DHT22;16228;48.800;9.002;2023-03-24T09:37:30;14.40;96.90
212;DHT22;16228;48.800;9.002;2023-03-24T09:39:57;14.50;96.90
212;DHT22;16228;48.800;9.002;2023-03-24T09:42:30;14.70;96.90
212;DHT22;16228;48.800;9.002;2023-03-24T09:45:02;14.70;96.90
212;DHT22;16228;48.800;9.002;2023-03-24T09:47:35;14.80;96.90
212;DHT22;16228;48.800;9.002;2023-03-24T09:50:10;15.00;96.90
212;DHT22;16228;48.800;9.002;2023-03-24T09:52:46;15.70;96.90
212;DHT22;16228;48.800;9.002;2023-03-24T09:55:17;16.50;96.90
212;DHT22;16228;48.800;9.002;2023-03-24T09:57:47;17.40;96.90
212;DHT22;16228;48.800;9.002;2023-03-24T10:00:16;17.90;96.90
212;DHT22;16228;48.800;9.002;2023-03-24T10:02:44;18.20;96.90
212;DHT22;16228;48.800;9.002;2023-03-24T10:05:13;18.70;96.90
212;DHT22;16228;48.800;9.002;2023-03-24T10:07:48;18.60;96.90
212;DHT22;16228;48.800;9.002;2023-03-24T10:10:23;18.40;96.90
212;DHT22;16228;48.800;9.002;2023-03-24T10:12:53;17.90;96.90
212;DHT22;16228;48.800;9.002;2023-03-24T10:15:29;17.70;96.90
212;DHT22;16228;48.800;9.002;2023-03-24T10:18:03;17.80;96.90
212;DHT22;16228;48.800;9.002;2023-03-24T10:20:34;17.90;96.90
212;DHT22;16228;48.800;9.002;2023-03-24T10:23:15;18.00;96.90
212;DHT22;16228;48.800;9.002;2023-03-24T10:25:50;17.80;96.90
212;DHT22;16228;48.800;9.002;2023-03-24T10:28:19;17.30;96.90
212;DHT22;16228;48.800;9.002;2023-03-24T10:30:50;17.20;96.90
212;DHT22;16228;48.800;9.002;2023-03-24T10:33:19;16.90;96.90
212;DHT22;16228;48.800;9.002;2023-03-24T10:35:54;16.70;96.90
212;DHT22;16228;48.800;9.002;2023-03-24T10:38:23;16.60;96.90
212;DHT22;16228;48.800;9.002;2023-03-24T10:40:51;16.50;96.90
212;DHT22;16228;48.800;9.002;2023-03-24T10:43:21;16.70;96.90
212;DHT22;16228;48.800;9.002;2023-03-24T10:45:51;16.80;96.90
212;DHT22;16228;48.800;9.002;2023-03-24T10:48:34;17.00;96.90
212;DHT22;16228;48.800;9.002;2023-03-24T10:51:01;17.00;96.90
212;DHT22;16228;48.800;9.002;2023-03-24T10:53:32;17.00;96.90
212;DHT22;16228;48.800;9.002;2023-03-24T10:56:00;16.90;96.90
212;DHT22;16228;48.800;9.002;2023-03-24T10:58:29;16.70;96.90
212;DHT22;16228;48.800;9.002;2023-03-24T11:01:02;16.50;96.90
212;DHT22;16228;48.800;9.002;2023-03-24T11:03:35;16.50;96.90
212;DHT22;16228;48.800;9.002;2023-03-24T11:06:04;17.00;96.90
212;DHT22;16228;48.800;9.002;2023-03-24T11:08:35;17.60;96.90
212;DHT22;16228;48.800;9.002;2023-03-24T11:11:14;18.10;96.90
212;DHT22;16228;48.800;9.002;2023-03-24T11:13:41;18.60;96.90
212;DHT22;16228;48.800;9.002;2023-03-24T11:16:26;18.80;96.90
212;DHT22;16228;48.800;9.002;2023-03-24T11:18:55;18.60;96.90
212;DHT22;16228;48.800;9.002;2023-03-24T11:21:23;18.30;96.90
212;DHT22;16228;48.800;9.002;2023-03-24T11:23:52;18.00;96.90
212;DHT22;16228;48.800;9.002;2023-03-24T11:26:20;17.60;96.90
212;DHT22;16228;48.800;9.002;2023-03-24T11:28:50;17.40;96.90
212;DHT22;16228;48.800;9.002;2023-03-24T11:31:23;17.30;96.90
212;DHT22;16228;48.800;9.002;2023-03-24T11:33:55;17.30;96.90
212;DHT22;16228;48.800;9.002;2023-03-24T11:36:40;17.20;96.90
212;DHT22;16228;48.800;9.002;2023-03-24T11:39:16;17.00;96.90
212;DHT22;16228;48.800;9.002;2023-03-24T11:42:00;16.50;96.90
212;DHT22;16228;48.800;9.002;2023-03-24T11:44:30;16.20;96.90
212;DHT22;16228;48.800;9.002;2023-03-24T11:47:02;15.90;96.90
212;DHT22;16228;48.800;9.002;2023-03-24T11:49:31;15.80;96.90
212;DHT22;16228;48.800;9.002;2023-03-24T11:51:59;15.90;96.90
212;DHT22;16228;48.800;9.002;2023-03-24T11:54:32;16.10;96.90
212;DHT22;16228;48.800;9.002;2023-03-24T11:57:04;16.20;96.90
212;DHT22;16228;48.800;9.002;2023-03-24T11:59:36;16.10;96.90
212;DHT22;16228;48.800;9.002;2023-03-24T12:02:12;15.90;96.90
212;DHT22;16228;48.800;9.002;2023-03-24T12:05:02;15.80;96.90
212;DHT22;16228;48.800;9.002;2023-03-24T12:08:00;15.80;96.90
212;DHT22;16228;48.800;9.002;2023-03-24T12:10:38;15.70;96.90
212;DHT22;16228;48.800;9.002;2023-03-24T12:13:09;15.60;96.90
212;DHT22;16228;48.800;9.002;2023-03-24T12:15:53;15.60;96.90
212;DHT22;16228;48.800;9.002;2023-03-24T12:18:35;15.70;96.90
212;DHT22;16228;48.800;9.002;2023-03-24T12:21:12;15.70;96.90
212;DHT22;16228;48.800;9.002;2023-03-24T12:23:51;15.80;96.90
212;DHT22;16228;48.800;9.002;2023-03-24T12:26:23;15.90;96.90
212;DHT22;16228;48.800;9.002;2023-03-24T12:29:01;15.90;96.90
212;DHT22;16228;48.800;9.002;2023-03-24T12:31:54;15.70;96.90
212;DHT22;16228;48.800;9.002;2023-03-24T12:34:45;15.60;96.90
212;DHT22;16228;48.800;9.002;2023-03-24T12:37:18;15.50;96.90
212;DHT22;16228;48.800;9.002;2023-03-24T12:39:54;15.60;96.90
212;DHT22;16228;48.800;9.002;2023-03-24T12:42:30;15.50;96.90
212;DHT22;16228;48.800;9.002;2023-03-24T12:45:26;15.30;96.90
212;DHT22;16228;48.800;9.002;2023-03-24T12:48:14;15.20;96.90
212;DHT22;16228;48.800;9.002;2023-03-24T12:50:57;15.40;96.90
212;DHT22;16228;48.800;9.002;2023-03-24T12:53:34;15.70;96.90
212;DHT22;16228;48.800;9.002;2023-03-24T12:56:10;15.80;96.90
212;DHT22;16228;48.800;9.002;2023-03-24T12:58:42;15.70;96.90
212;DHT22;16228;48.800;9.002;2023-03-24T13:01:18;15.70;96.90
212;DHT22;16228;48.800;9.002;2023-03-24T13:03:49;16.00;96.90
212;DHT22;16228;48.800;9.002;2023-03-24T13:06:22;16.30;96.90
212;DHT22;16228;48.800;9.002;2023-03-24T13:09:09;16.50;96.90
212;DHT22;16228;48.800;9.002;2023-03-24T13:11:45;16.70;96.90
212;DHT22;16228;48.800;9.002;2023-03-24T13:14:20;16.50;96.90
212;DHT22;16228;48.800;9.002;2023-03-24T13:16:49;16.50;96.90
212;DHT22;16228;48.800;9.002;2023-03-24T13:19:19;16.30;96.90
212;DHT22;16228;48.800;9.002;2023-03-24T13:21:50;16.10;96.90
212;DHT22;16228;48.800;9.002;2023-03-24T13:24:18;15.90;96.90
212;DHT22;16228;48.800;9.002;2023-03-24T13:26:51;15.70;96.90
212;DHT22;16228;48.800;9.002;2023-03-24T13:29:43;15.50;96.90
212;DHT22;16228;48.800;9.002;2023-03-24T13:32:20;15.30;96.90
212;DHT22;16228;48.800;9.002;2023-03-24T13:34:55;15.20;96.90
212;DHT22;16228;48.800;9.002;2023-03-24T13:37:27;15.10;96.90
212;DHT22;16228;48.800;9.002;2023-03-24T13:39:58;15.10;96.90
212;DHT22;16228;48.800;9.002;2023-03-24T13:42:30;15.10;96.90
212;DHT22;16228;48.800;9.002;2023-03-24T13:45:00;15.20;96.90
212;DHT22;16228;48.800;9.002;2023-03-24T13:47:46;15.20;96.90
212;DHT22;16228;48.800;9.002;2023-03-24T13:50:15;15.10;96.90
212;DHT22;16228;48.800;9.002;2023-03-24T13:52:44;15.10;96.90
212;DHT22;16228;48.800;9.002;2023-03-24T13:55:18;15.10;96.90
212;DHT22;16228;48.800;9.002;2023-03-24T13:57:53;15.00;96.90
212;DHT22;16228;48.800;9.002;2023-03-24T14:00:24;14.70;96.90
212;DHT22;16228;48.800;9.002;2023-03-24T14:02:52;14.50;96.90
212;DHT22;16228;48.800;9.002;2023-03-24T14:05:50;14.50;96.90
212;DHT22;16228;48.800;9.002;2023-03-24T14:08:38;14.40;96.90
212;DHT22;16228;48.800;9.002;2023-03-24T14:13:52;13.80;96.90
212;DHT22;16228;48.800;9.002;2023-03-24T14:16:41;13.50;96.90
212;DHT22;16228;48.800;9.002;2023-03-24T14:19:24;13.30;96.90
212;DHT22;16228;48.800;9.002;2023-03-24T14:21:56;13.10;96.90
212;DHT22;16228;48.800;9.002;2023-03-24T14:24:26;13.00;96.90
212;DHT22;16228;48.800;9.002;2023-03-24T14:26:53;12.90;96.90
212;DHT22;16228;48.800;9.002;2023-03-24T14:29:38;12.90;96.90
212;DHT22;16228;48.800;9.002;2023-03-24T14:32:15;12.70;96.90
212;DHT22;16228;48.800;9.002;2023-03-24T14:34:50;12.60;96.90
212;DHT22;16228;48.800;9.002;2023-03-24T14:37:18;12.60;96.90
212;DHT22;16228;48.800;9.002;2023-03-24T14:39:46;12.70;96.90
212;DHT22;16228;48.800;9.002;2023-03-24T14:48:34;12.80;96.90
212;DHT22;16228;48.800;9.002;2023-03-24T14:51:34;12.60;96.90
212;DHT22;16228;48.800;9.002;2023-03-24T14:54:04;12.50;96.90
212;DHT22;16228;48.800;9.002;2023-03-24T14:56:34;12.30;96.90
212;DHT22;16228;48.800;9.002;2023-03-24T14:59:08;12.20;96.90
212;DHT22;16228;48.800;9.002;2023-03-24T15:01:37;12.10;96.90
212;DHT22;16228;48.800;9.002;2023-03-24T15:04:11;12.00;96.90
212;DHT22;16228;48.800;9.002;2023-03-24T15:06:45;12.00;96.90
212;DHT22;16228;48.800;9.002;2023-03-24T15:09:15;11.90;96.90
212;DHT22;16228;48.800;9.002;2023-03-24T15:11:42;11.90;96.90
212;DHT22;16228;48.800;9.002;2023-03-24T15:14:19;11.90;96.90
212;DHT22;16228;48.800;9.002;2023-03-24T15:16:53;11.90;96.90
212;DHT22;16228;48.800;9.002;2023-03-24T15:19:23;11.90;96.90
212;DHT22;16228;48.800;9.002;2023-03-24T15:21:57;12.00;96.90
212;DHT22;16228;48.800;9.002;2023-03-24T15:24:28;12.20;96.90
212;DHT22;16228;48.800;9.002;2023-03-24T15:27:21;12.30;96.90
212;DHT22;16228;48.800;9.002;2023-03-24T15:29:53;12.40;96.90
212;DHT22;16228;48.800;9.002;2023-03-24T15:32:23;12.60;96.90
212;DHT22;16228;48.800;9.002;2023-03-24T15:34:54;12.70;96.90
212;DHT22;16228;48.800;9.002;2023-03-24T15:37:29;12.70;96.90
212;DHT22;16228;48.800;9.002;2023-03-24T15:39:57;12.80;96.90
212;DHT22;16228;48.800;9.002;2023-03-24T15:42:24;12.80;96.90
212;DHT22;16228;48.800;9.002;2023-03-24T15:44:52;12.90;96.90
212;DHT22;16228;48.800;9.002;2023-03-24T15:47:21;13.00;96.90
212;DHT22;16228;48.800;9.002;2023-03-24T15:49:51;13.10;96.90
212;DHT22;16228;48.800;9.002;2023-03-24T15:52:30;13.20;96.90
212;DHT22;16228;48.800;9.002;2023-03-24T15:55:00;13.20;96.90
212;DHT22;16228;48.800;9.002;2023-03-24T15:57:37;13.10;96.90
212;DHT22;16228;48.800;9.002;2023-03-24T16:00:10;13.20;96.90
212;DHT22;16228;48.800;9.002;2023-03-24T16:02:44;13.20;96.90
212;DHT22;16228;48.800;9.002;2023-03-24T16:05:22;13.30;96.90
212;DHT22;16228;48.800;9.002;2023-03-24T16:07:58;13.30;96.90
212;DHT22;16228;48.800;9.002;2023-03-24T16:10:31;13.40;96.90
212;DHT22;16228;48.800;9.002;2023-03-24T16:13:12;13.50;96.90
212;DHT22;16228;48.800;9.002;2023-03-24T16:15:41;13.50;96.90
212;DHT22;16228;48.800;9.002;2023-03-24T16:18:14;13.50;96.90
212;DHT22;16228;48.800;9.002;2023-03-24T16:20:41;13.50;96.90
212;DHT22;16228;48.800;9.002;2023-03-24T16:23:10;13.30;96.90
212;DHT22;16228;48.800;9.002;2023-03-24T16:25:37;13.30;96.90
212;DHT22;16228;48.800;9.002;2023-03-24T16:28:05;13.30;96.90
212;DHT22;16228;48.800;9.002;2023-03-24T16:30:37;13.20;96.90
212;DHT22;16228;48.800;9.002;2023-03-24T16:33:05;13.20;96.90
212;DHT22;16228;48.800;9.002;2023-03-24T16:35:33;13.20;96.90
212;DHT22;16228;48.800;9.002;2023-03-24T16:38:01;13.00;96.90
212;DHT22;16228;48.800;9.002;2023-03-24T16:40:34;13.10;96.90
212;DHT22;16228;48.800;9.002;2023-03-24T16:43:03;13.10;96.90
212;DHT22;16228;48.800;9.002;2023-03-24T16:45:31;13.10;96.90
212;DHT22;16228;48.800;9.002;2023-03-24T16:47:58;13.10;96.90
212;DHT22;16228;48.800;9.002;2023-03-24T16:50:29;13.00;96.90